Westwood, Michigan
Current Conditions -  °F | °C
As of 2:53 AM on Friday 21 Nov 2014 (Local Time) from KAZO Reporting Station
Overcast Overcast  
Wind Chill: 12°   Ceiling: 4600
Heat Index: 20°   Visibility: 9mi
Dew Point: 13°   Wind: 6mph
Humidity: 74%   Direction: 300°WNW
Pressure: 30.28"   Gusts: NA
Location:  42.3033°N, 85.7028°W
Report Text: KAZO 210753Z AUTO 30005KT 9SM OVC046 M07/M11 A3028 RMK AO2 SNB32E45 SLP270 P0000 T10671106
Loading
Personal Weather Stations






























Interactive Weather Map New forecast layout! Learn more

10-Day Weather Forecast

Advertisements
Track Severe Weather on mobile